Time;durP1;ratioP1;P1;durP2;ratioP2;P2;SDS_P1;SDS_P2;PMS_P1;PMS_P2;Temp;Humidity;BMP_temperature;BMP_pressure;BME280_temperature;BME280_humidity;BME280_pressure;Samples;Min_cycle;Max_cycle;Signal;HPM_P1;HPM_P2
2022/05/01 00:02:20;;;;;;;11.05;7.43;;;10.00;99.90;;;;;;5086794;28;20505;-60
2022/05/01 00:04:46;;;;;;;10.27;6.78;;;9.90;99.90;;;;;;5086994;28;20159;-61
2022/05/01 00:07:12;;;;;;;9.48;7.03;;;9.90;99.90;;;;;;5088451;28;20151;-61
2022/05/01 00:09:39;;;;;;;13.45;7.43;;;9.90;99.90;;;;;;5086957;28;20044;-61
2022/05/01 00:12:07;;;;;;;11.80;7.63;;;9.90;99.90;;;;;;5087707;28;20082;-61
2022/05/01 00:14:33;;;;;;;11.32;8.32;;;9.90;99.90;;;;;;5089975;28;20096;-61
2022/05/01 00:16:59;;;;;;;9.98;7.82;;;9.90;99.90;;;;;;5087050;28;20487;-61
2022/05/01 00:19:25;;;;;;;12.88;8.30;;;9.80;99.90;;;;;;5083070;28;20036;-61
2022/05/01 00:21:50;;;;;;;10.13;7.57;;;9.90;99.90;;;;;;5085467;28;20048;-60
2022/05/01 00:24:16;;;;;;;12.45;7.60;;;9.80;99.90;;;;;;5088313;28;20044;-61
2022/05/01 00:26:41;;;;;;;11.43;8.02;;;9.90;99.90;;;;;;5083988;28;20063;-61
2022/05/01 00:29:07;;;;;;;10.90;7.30;;;9.80;99.90;;;;;;5085670;28;20028;-61
2022/05/01 00:31:33;;;;;;;11.10;8.05;;;9.90;99.90;;;;;;5088103;28;20333;-61
2022/05/01 00:36:42;;;;;;;12.13;7.97;;;9.70;99.90;;;;;;5086536;28;21683;-61
2022/05/01 00:39:08;;;;;;;11.30;8.07;;;9.70;99.90;;;;;;5080276;28;20041;-62
2022/05/01 00:41:36;;;;;;;12.70;8.85;;;9.80;99.90;;;;;;5080830;28;20075;-61
2022/05/01 00:44:03;;;;;;;12.45;8.23;;;9.80;99.90;;;;;;5089204;28;20044;-61
2022/05/01 00:46:33;;;;;;;12.50;7.70;;;9.80;99.90;;;;;;5086751;28;20051;-61
2022/05/01 00:49:04;;;;;;;12.63;9.23;;;9.80;99.90;;;;;;5086348;28;20136;-62
2022/05/01 00:51:43;;;;;;;12.15;8.85;;;9.70;99.90;;;;;;5086515;28;20511;-62
2022/05/01 00:54:10;;;;;;;14.23;9.05;;;9.70;99.90;;;;;;5087253;28;20441;-60
2022/05/01 00:56:40;;;;;;;11.95;8.93;;;9.70;99.90;;;;;;5082968;28;20054;-60
2022/05/01 00:59:06;;;;;;;10.57;8.32;;;9.80;99.90;;;;;;5078035;28;20337;-61
2022/05/01 01:01:33;;;;;;;13.23;8.65;;;9.80;99.90;;;;;;5082908;28;20767;-61
2022/05/01 01:03:59;;;;;;;13.63;8.25;;;9.80;99.90;;;;;;5079372;28;20314;-60
2022/05/01 01:06:24;;;;;;;10.52;8.32;;;9.70;99.90;;;;;;5085882;28;20121;-60
2022/05/01 01:08:50;;;;;;;12.07;8.55;;;9.70;99.90;;;;;;5088080;28;20359;-62
2022/05/01 01:11:16;;;;;;;13.63;8.60;;;9.70;99.90;;;;;;5086164;28;20036;-61
2022/05/01 01:13:42;;;;;;;12.48;8.55;;;9.80;99.90;;;;;;5088203;28;20115;-60
2022/05/01 01:16:10;;;;;;;14.40;8.43;;;9.70;99.90;;;;;;5085527;28;20076;-62
2022/05/01 01:18:39;;;;;;;12.75;9.15;;;9.70;99.90;;;;;;5085351;28;20036;-60
2022/05/01 01:21:07;;;;;;;13.02;8.93;;;9.70;99.90;;;;;;5084220;28;20055;-60
2022/05/01 01:23:33;;;;;;;11.90;8.63;;;9.70;99.90;;;;;;5088866;28;20032;-60
2022/05/01 01:25:58;;;;;;;12.95;8.25;;;9.60;99.90;;;;;;5086233;28;20417;-60
2022/05/01 01:28:25;;;;;;;11.48;8.10;;;9.60;99.90;;;;;;5086231;28;20511;-60
2022/05/01 01:33:37;;;;;;;11.75;8.38;;;9.60;99.90;;;;;;5086662;28;20041;-61
2022/05/01 01:36:03;;;;;;;11.68;8.35;;;9.60;99.90;;;;;;5078894;28;20052;-61
2022/05/01 01:38:30;;;;;;;13.40;9.60;;;9.60;99.90;;;;;;5087410;28;20064;-61
2022/05/01 01:40:58;;;;;;;10.80;7.88;;;9.50;99.90;;;;;;5083775;28;20127;-60
2022/05/01 01:43:28;;;;;;;12.82;8.20;;;9.50;99.90;;;;;;5086601;28;20403;-60
2022/05/01 01:45:57;;;;;;;11.35;8.52;;;9.60;99.90;;;;;;5085164;28;20107;-62
2022/05/01 01:48:23;;;;;;;12.68;8.77;;;9.60;99.90;;;;;;5085805;28;20119;-60
2022/05/01 01:51:01;;;;;;;13.10;9.02;;;9.60;99.90;;;;;;5085311;28;20052;-61
2022/05/01 01:53:29;;;;;;;13.23;8.38;;;9.60;99.90;;;;;;5083712;28;20055;-61
2022/05/01 01:55:56;;;;;;;11.15;8.85;;;9.60;99.90;;;;;;5085087;28;20594;-60
2022/05/01 01:58:22;;;;;;;13.45;8.52;;;9.60;99.90;;;;;;5085790;28;20055;-60
2022/05/01 02:00:47;;;;;;;14.65;8.55;;;9.70;99.90;;;;;;5088290;28;20044;-60
2022/05/01 02:03:13;;;;;;;12.77;8.93;;;9.70;99.90;;;;;;5087896;28;20032;-60
2022/05/01 02:05:38;;;;;;;11.82;9.00;;;9.60;99.90;;;;;;5087250;28;20113;-60
2022/05/01 02:08:07;;;;;;;12.80;9.48;;;9.60;99.90;;;;;;5090202;28;20036;-60
2022/05/01 02:10:34;;;;;;;13.55;8.98;;;9.60;99.90;;;;;;5083879;28;20174;-61
2022/05/01 02:13:00;;;;;;;10.82;8.05;;;9.50;99.90;;;;;;5083483;28;20368;-61
2022/05/01 02:15:30;;;;;;;12.90;9.00;;;9.50;99.90;;;;;;5086566;28;20038;-61
2022/05/01 02:17:58;;;;;;;13.55;9.02;;;9.50;99.90;;;;;;5088116;28;20682;-60
2022/05/01 02:20:25;;;;;;;11.30;8.18;;;9.50;99.90;;;;;;5088119;28;20040;-61
2022/05/01 02:22:53;;;;;;;14.45;8.88;;;9.50;99.90;;;;;;5091572;28;20044;-60
2022/05/01 02:25:21;;;;;;;12.52;8.88;;;9.50;99.90;;;;;;5086565;28;20044;-61
2022/05/01 02:27:47;;;;;;;11.98;8.77;;;9.50;99.90;;;;;;5087624;28;20104;-61
2022/05/01 02:30:13;;;;;;;14.57;9.13;;;9.50;99.90;;;;;;5089136;28;20040;-61
2022/05/01 02:32:39;;;;;;;12.85;9.15;;;9.50;99.90;;;;;;5089312;28;20040;-61
2022/05/01 02:35:06;;;;;;;11.77;8.93;;;9.40;99.90;;;;;;5084685;28;20364;-62
2022/05/01 02:37:32;;;;;;;13.15;9.10;;;9.40;99.90;;;;;;5088580;28;20521;-61
2022/05/01 02:39:57;;;;;;;13.20;9.05;;;9.30;99.90;;;;;;5082499;28;20158;-61
2022/05/01 02:42:23;;;;;;;14.25;9.75;;;9.30;99.90;;;;;;5081481;28;20090;-61
2022/05/01 02:44:48;;;;;;;14.32;9.82;;;9.30;99.90;;;;;;5085019;28;20532;-61
2022/05/01 02:47:14;;;;;;;14.52;9.75;;;9.20;99.90;;;;;;5084918;28;20428;-61
2022/05/01 02:49:40;;;;;;;11.10;8.35;;;9.20;99.90;;;;;;5085052;28;20040;-61
2022/05/01 02:52:07;;;;;;;13.77;9.30;;;9.30;99.90;;;;;;5084129;28;20183;-60
2022/05/01 02:54:33;;;;;;;12.32;9.55;;;9.20;99.90;;;;;;5085737;28;20043;-60
2022/05/01 02:56:59;;;;;;;14.13;9.38;;;9.20;99.90;;;;;;5084433;28;20097;-61
2022/05/01 02:59:24;;;;;;;12.90;9.50;;;9.10;99.90;;;;;;5084030;28;20123;-62
2022/05/01 03:01:50;;;;;;;14.20;9.80;;;9.10;99.90;;;;;;5082245;28;20044;-61
2022/05/01 03:04:15;;;;;;;13.50;10.20;;;9.10;99.90;;;;;;5084120;28;20735;-62
2022/05/01 03:06:41;;;;;;;16.75;10.25;;;9.10;99.90;;;;;;5084154;28;20349;-61
2022/05/01 03:09:08;;;;;;;16.23;10.80;;;9.00;99.90;;;;;;5083954;28;20039;-62
2022/05/01 03:11:37;;;;;;;16.35;11.27;;;9.00;99.90;;;;;;5083458;28;20574;-61
2022/05/01 03:14:03;;;;;;;17.23;11.18;;;8.80;99.90;;;;;;5084690;28;20051;-62
2022/05/01 03:16:29;;;;;;;16.33;10.43;;;8.80;99.90;;;;;;5083957;28;20044;-60
2022/05/01 03:24:23;;;;;;;11.70;9.93;;;8.80;99.90;;;;;;5082654;28;20044;-61
2022/05/01 03:26:49;;;;;;;15.65;11.30;;;8.80;99.90;;;;;;5081780;28;20051;-61
2022/05/01 03:29:15;;;;;;;13.27;9.70;;;8.90;99.90;;;;;;5082886;28;20052;-61
2022/05/01 03:31:41;;;;;;;14.45;10.23;;;8.80;99.90;;;;;;5084334;28;20105;-61
2022/05/01 03:34:07;;;;;;;14.73;10.50;;;8.80;99.90;;;;;;5083376;28;20044;-61
2022/05/01 03:36:33;;;;;;;13.35;10.60;;;8.80;99.90;;;;;;5080956;28;20661;-61
2022/05/01 03:38:59;;;;;;;15.88;11.32;;;8.70;99.90;;;;;;5084080;28;20128;-60
2022/05/01 03:41:26;;;;;;;14.48;10.88;;;8.70;99.90;;;;;;5085635;28;20131;-61
2022/05/01 03:43:52;;;;;;;15.13;11.10;;;8.70;99.90;;;;;;5087815;28;20495;-61
2022/05/01 03:46:20;;;;;;;14.55;11.45;;;8.70;99.90;;;;;;5086347;28;20220;-61
2022/05/01 03:48:46;;;;;;;15.65;11.98;;;8.70;99.90;;;;;;5089731;28;20040;-61
2022/05/01 03:51:12;;;;;;;15.13;11.60;;;8.70;99.90;;;;;;5087865;28;20054;-61
2022/05/01 03:53:38;;;;;;;17.45;12.32;;;8.70;99.90;;;;;;5090501;28;20039;-61
2022/05/01 03:56:04;;;;;;;15.68;12.32;;;8.70;99.90;;;;;;5087977;28;20410;-61
2022/05/01 03:58:30;;;;;;;15.45;11.70;;;8.60;99.90;;;;;;5088405;28;20489;-61
2022/05/01 04:00:57;;;;;;;17.02;11.73;;;8.60;99.90;;;;;;5085622;28;20079;-61
2022/05/01 04:03:23;;;;;;;15.38;11.88;;;8.60;99.90;;;;;;5088939;28;20160;-61
2022/05/01 04:05:49;;;;;;;15.85;11.20;;;8.60;99.90;;;;;;5085960;28;20732;-60
2022/05/01 04:08:14;;;;;;;14.77;10.70;;;8.60;99.90;;;;;;5088982;28;20036;-61
2022/05/01 04:10:41;;;;;;;14.88;10.52;;;8.60;99.90;;;;;;5087663;28;20110;-61
2022/05/01 04:13:08;;;;;;;15.70;11.45;;;8.60;99.90;;;;;;5087562;28;20482;-61
2022/05/01 04:15:36;;;;;;;15.00;11.20;;;8.60;99.90;;;;;;5088178;28;20062;-61
2022/05/01 04:18:02;;;;;;;15.50;11.00;;;8.60;99.90;;;;;;5088050;28;20086;-62
2022/05/01 04:20:28;;;;;;;14.88;10.90;;;8.60;99.90;;;;;;5086856;28;20097;-61
2022/05/01 04:22:54;;;;;;;16.60;10.80;;;8.60;99.90;;;;;;5087175;28;20111;-61
2022/05/01 04:25:29;;;;;;;14.32;10.80;;;8.70;99.90;;;;;;5088349;28;20062;-62
2022/05/01 04:28:04;;;;;;;16.23;11.55;;;8.70;99.90;;;;;;5088925;28;20447;-60
2022/05/01 04:30:33;;;;;;;;;;;8.70;99.90;;;;;;5088583;28;20082;-61
2022/05/01 04:33:00;;;;;;;13.25;10.90;;;8.60;99.90;;;;;;5088314;28;19986;-61
2022/05/01 04:35:32;;;;;;;13.80;11.30;;;8.60;99.90;;;;;;5085368;28;20456;-61
2022/05/01 04:38:07;;;;;;;14.85;10.88;;;8.60;99.90;;;;;;5089296;28;20054;-61
2022/05/01 04:40:38;;;;;;;16.35;11.38;;;8.60;99.90;;;;;;5086255;28;20429;-61
2022/05/01 04:43:06;;;;;;;15.23;11.20;;;8.60;99.90;;;;;;5087441;28;20329;-61
2022/05/01 04:45:33;;;;;;;16.02;11.93;;;8.60;99.90;;;;;;5082437;28;20361;-60
2022/05/01 04:47:59;;;;;;;16.17;11.43;;;8.60;99.90;;;;;;5086960;28;20081;-61
2022/05/01 04:50:26;;;;;;;14.68;11.07;;;8.70;99.90;;;;;;5082863;28;20525;-60
2022/05/01 04:52:52;;;;;;;18.73;11.60;;;8.70;99.90;;;;;;5087804;28;20131;-61
2022/05/01 04:55:17;;;;;;;14.73;11.20;;;8.70;99.90;;;;;;5086631;28;20375;-62
2022/05/01 04:57:43;;;;;;;16.02;11.63;;;8.70;99.90;;;;;;5084017;28;20074;-60
2022/05/01 05:00:10;;;;;;;15.68;11.00;;;8.80;99.90;;;;;;5083708;28;20139;-61
2022/05/01 05:02:39;;;;;;;20.88;12.85;;;8.80;99.90;;;;;;5085336;28;20505;-61
2022/05/01 05:05:08;;;;;;;16.45;11.80;;;8.90;99.90;;;;;;5084868;28;20043;-60
2022/05/01 05:07:33;;;;;;;16.15;12.10;;;8.90;99.90;;;;;;5085351;28;20143;-60
2022/05/01 05:09:59;;;;;;;16.42;12.90;;;8.90;99.90;;;;;;5084938;28;20143;-61
2022/05/01 05:12:25;;;;;;;15.93;11.63;;;9.00;99.90;;;;;;5083268;28;20051;-61
2022/05/01 05:14:54;;;;;;;18.95;13.18;;;9.00;99.90;;;;;;5082187;28;20147;-61
2022/05/01 05:17:20;;;;;;;18.40;12.85;;;8.80;99.90;;;;;;5080990;28;20044;-61
2022/05/01 05:19:47;;;;;;;17.58;13.25;;;8.70;99.90;;;;;;5081263;28;20113;-62
2022/05/01 05:22:13;;;;;;;18.23;13.18;;;8.70;99.90;;;;;;5080667;28;20040;-61
2022/05/01 05:24:38;;;;;;;16.80;12.38;;;8.80;99.90;;;;;;5080662;28;20435;-60
2022/05/01 05:27:04;;;;;;;15.90;11.98;;;8.90;99.90;;;;;;5085527;28;20052;-61
2022/05/01 05:29:30;;;;;;;18.20;12.80;;;8.90;99.90;;;;;;5076492;28;20187;-61
2022/05/01 05:31:56;;;;;;;17.08;12.98;;;9.00;99.90;;;;;;5081994;28;20078;-61
2022/05/01 05:34:22;;;;;;;20.52;14.68;;;9.00;99.90;;;;;;5081153;28;20472;-61
2022/05/01 05:36:47;;;;;;;22.42;15.95;;;9.10;99.90;;;;;;5078668;28;20096;-61
2022/05/01 05:39:13;;;;;;;20.50;15.65;;;9.00;99.90;;;;;;5080587;28;20032;-63
2022/05/01 05:41:39;;;;;;;20.75;15.60;;;9.10;99.90;;;;;;5080594;28;20147;-61
2022/05/01 05:44:05;;;;;;;17.58;13.55;;;9.20;99.90;;;;;;5076441;28;20484;-61
2022/05/01 05:46:31;;;;;;;16.73;13.52;;;9.40;99.90;;;;;;5080944;28;20079;-61
2022/05/01 05:48:57;;;;;;;18.38;13.25;;;9.40;99.90;;;;;;5080549;28;20032;-62
2022/05/01 05:51:22;;;;;;;18.27;12.30;;;9.40;99.90;;;;;;5080434;28;20040;-61
2022/05/01 05:53:52;;;;;;;17.90;13.63;;;9.40;99.90;;;;;;5080514;28;20086;-61
2022/05/01 05:56:19;;;;;;;21.35;13.43;;;9.50;99.90;;;;;;5080752;28;20491;-61
2022/05/01 05:58:44;;;;;;;17.10;12.77;;;9.60;99.90;;;;;;5081851;28;20395;-62
2022/05/01 06:01:11;;;;;;;19.48;14.20;;;9.70;99.90;;;;;;5079362;28;20052;-61
2022/05/01 06:03:37;;;;;;;18.98;12.45;;;9.60;99.90;;;;;;5084839;28;20040;-61
2022/05/01 06:06:03;;;;;;;16.30;13.00;;;9.50;99.90;;;;;;5083572;28;20433;-62
2022/05/01 06:08:29;;;;;;;16.48;13.63;;;9.50;99.90;;;;;;5087972;28;20051;-61
2022/05/01 06:10:55;;;;;;;19.58;12.80;;;9.50;99.90;;;;;;5087370;28;20044;-61
2022/05/01 06:13:20;;;;;;;17.63;12.98;;;9.40;99.90;;;;;;5087669;28;20085;-61
2022/05/01 06:15:46;;;;;;;17.38;13.50;;;9.40;99.90;;;;;;5087718;28;20136;-61
2022/05/01 06:18:12;;;;;;;18.02;13.50;;;9.40;99.90;;;;;;5087911;28;20143;-61
2022/05/01 06:20:37;;;;;;;20.02;12.98;;;9.50;99.90;;;;;;5078067;28;20161;-61
2022/05/01 06:23:03;;;;;;;19.85;13.25;;;9.50;99.90;;;;;;5086429;28;20509;-61
2022/05/01 06:25:29;;;;;;;16.63;13.13;;;9.50;99.90;;;;;;5087385;28;20052;-61
2022/05/01 06:27:55;;;;;;;17.13;13.52;;;9.50;99.90;;;;;;5082356;28;20396;-61
2022/05/01 06:30:21;;;;;;;19.70;13.85;;;9.60;99.90;;;;;;5084594;28;20040;-61
2022/05/01 06:32:47;;;;;;;17.70;14.00;;;9.70;99.90;;;;;;5083484;28;20126;-60
2022/05/01 06:35:14;;;;;;;18.08;13.45;;;9.70;99.90;;;;;;5086578;28;20064;-61
2022/05/01 06:37:39;;;;;;;20.58;13.88;;;9.80;99.90;;;;;;5081471;28;20218;-62
2022/05/01 06:40:06;;;;;;;20.60;15.48;;;10.00;99.90;;;;;;5090253;28;20273;-61
2022/05/01 06:42:32;;;;;;;18.10;14.68;;;10.20;99.90;;;;;;5089379;28;20471;-61
2022/05/01 06:44:58;;;;;;;18.40;13.55;;;10.20;99.90;;;;;;5089204;28;20048;-61
2022/05/01 06:47:24;;;;;;;17.05;13.20;;;10.50;99.90;;;;;;5086277;28;20256;-61
2022/05/01 06:49:50;;;;;;;18.50;14.20;;;10.60;99.90;;;;;;5089994;28;20168;-61
2022/05/01 06:52:23;;;;;;;19.42;14.00;;;10.80;99.90;;;;;;5089857;28;20048;-62
2022/05/01 06:54:53;;;;;;;17.90;14.00;;;11.00;99.90;;;;;;5089298;28;20051;-62
2022/05/01 06:57:19;;;;;;;19.40;13.85;;;11.30;99.90;;;;;;5084751;28;20040;-62
2022/05/01 06:59:45;;;;;;;16.30;12.85;;;11.50;99.90;;;;;;5081520;28;20032;-62
2022/05/01 07:02:13;;;;;;;16.58;13.60;;;11.80;99.90;;;;;;5086022;28;20047;-62
2022/05/01 07:04:39;;;;;;;16.30;13.25;;;12.00;99.90;;;;;;5076475;28;20518;-62
2022/05/01 07:07:04;;;;;;;15.15;12.32;;;12.10;99.90;;;;;;5082060;28;20040;-63
2022/05/01 07:09:30;;;;;;;15.77;12.48;;;12.20;99.90;;;;;;5079852;28;20048;-63
2022/05/01 07:11:56;;;;;;;15.48;12.63;;;12.20;99.90;;;;;;5088030;28;20036;-63
2022/05/01 07:14:22;;;;;;;15.57;12.35;;;12.30;99.90;;;;;;5088086;28;20094;-63
2022/05/01 07:16:47;;;;;;;15.73;13.05;;;12.30;99.90;;;;;;5086369;28;20064;-62
2022/05/01 07:19:14;;;;;;;16.00;12.45;;;12.40;99.90;;;;;;5086187;28;20456;-62
2022/05/01 07:21:40;;;;;;;17.15;12.88;;;12.50;99.90;;;;;;5077836;28;20036;-62
2022/05/01 07:24:06;;;;;;;14.27;11.98;;;12.40;99.90;;;;;;5085124;28;20066;-62
2022/05/01 07:26:33;;;;;;;14.05;10.73;;;12.40;99.90;;;;;;5084170;28;20491;-63
2022/05/01 07:29:03;;;;;;;13.88;11.40;;;12.30;99.90;;;;;;5083501;28;20048;-63
2022/05/01 07:31:29;;;;;;;16.85;12.02;;;12.20;99.90;;;;;;5085840;28;20044;-62
2022/05/01 07:33:55;;;;;;;15.98;11.85;;;12.10;99.90;;;;;;5088107;28;20142;-61
2022/05/01 07:36:21;;;;;;;15.63;11.48;;;12.20;99.90;;;;;;5088237;28;20063;-62
2022/05/01 07:38:48;;;;;;;15.43;12.27;;;12.10;99.90;;;;;;5090682;28;20044;-61
2022/05/01 07:41:16;;;;;;;17.23;12.95;;;12.10;99.90;;;;;;5087879;28;20052;-61
2022/05/01 07:43:42;;;;;;;15.98;12.85;;;12.00;99.90;;;;;;5089624;28;20051;-62
2022/05/01 07:46:08;;;;;;;13.10;10.90;;;12.10;99.90;;;;;;5099688;28;20043;-62
2022/05/01 07:48:34;;;;;;;14.50;11.05;;;12.00;99.90;;;;;;5085006;28;20341;-62
2022/05/01 07:51:00;;;;;;;15.50;10.98;;;12.10;99.90;;;;;;5077663;28;20506;-61
2022/05/01 07:53:25;;;;;;;15.95;11.35;;;12.20;99.90;;;;;;5088389;28;20059;-62
2022/05/01 07:55:51;;;;;;;15.73;10.88;;;12.20;99.90;;;;;;5088110;28;20047;-61
2022/05/01 07:58:16;;;;;;;13.98;10.07;;;12.30;99.90;;;;;;5089116;28;20051;-62
2022/05/01 08:00:42;;;;;;;12.07;9.57;;;12.30;99.90;;;;;;5089101;28;20028;-62
2022/05/01 08:05:52;;;;;;;12.70;9.65;;;12.40;99.90;;;;;;5090448;28;20043;-62
2022/05/01 08:08:17;;;;;;;14.23;10.30;;;12.60;99.90;;;;;;5089324;28;20032;-61
2022/05/01 08:10:43;;;;;;;13.32;9.82;;;12.60;99.90;;;;;;5086695;28;20097;-62
2022/05/01 08:13:08;;;;;;;14.48;10.45;;;12.80;99.90;;;;;;5086765;28;20043;-62
2022/05/01 08:15:34;;;;;;;14.02;10.10;;;12.90;99.90;;;;;;5086327;28;20029;-62
2022/05/01 08:23:28;;;;;;;10.05;7.90;;;12.90;99.90;;;;;;5083090;28;20040;-61
2022/05/01 08:25:54;;;;;;;9.40;6.82;;;12.90;99.90;;;;;;5088344;28;20036;-61
2022/05/01 08:28:19;;;;;;;12.70;8.52;;;13.10;99.90;;;;;;5090640;28;20916;-62
2022/05/01 08:30:45;;;;;;;10.00;6.78;;;13.30;99.90;;;;;;5086883;28;20069;-61
2022/05/01 08:33:10;;;;;;;8.98;5.90;;;13.50;99.90;;;;;;5079949;28;20494;-61
2022/05/01 08:35:36;;;;;;;7.38;5.22;;;13.40;97.70;;;;;;5088310;28;20052;-62
2022/05/01 08:38:01;;;;;;;8.80;6.45;;;13.50;96.20;;;;;;5083770;28;20054;-63
2022/05/01 08:40:27;;;;;;;10.50;6.70;;;13.40;94.40;;;;;;5088760;28;20051;-61
2022/05/01 08:42:53;;;;;;;9.35;6.45;;;13.40;96.00;;;;;;5081472;28;20051;-62
2022/05/01 08:45:25;;;;;;;9.82;7.47;;;13.30;96.60;;;;;;5087316;28;20046;-62
2022/05/01 08:48:32;;;;;;;11.50;7.85;;;13.10;97.10;;;;;;5086283;28;20047;-62
2022/05/01 08:51:00;;;;;;;12.70;8.57;;;12.80;97.20;;;;;;5050354;28;20126;-62
2022/05/01 08:53:28;;;;;;;11.32;9.18;;;12.70;98.70;;;;;;5083999;28;20043;-62
2022/05/01 08:55:55;;;;;;;13.00;8.93;;;12.70;99.60;;;;;;5086224;28;20138;-62
2022/05/01 08:58:22;;;;;;;12.90;8.27;;;12.60;99.90;;;;;;5073479;28;20075;-62
2022/05/01 09:00:51;;;;;;;11.93;8.63;;;12.70;99.90;;;;;;5086857;28;20116;-63
2022/05/01 09:03:17;;;;;;;11.48;7.70;;;12.80;99.90;;;;;;5085833;28;20071;-62
2022/05/01 09:05:44;;;;;;;12.05;9.02;;;12.80;99.90;;;;;;5082801;28;20048;-62
2022/05/01 09:08:09;;;;;;;15.32;9.77;;;12.80;99.90;;;;;;5072785;28;20040;-61
2022/05/01 09:10:36;;;;;;;12.15;9.45;;;12.90;99.90;;;;;;5078893;28;20121;-62
2022/05/01 09:13:01;;;;;;;12.25;8.93;;;12.90;99.90;;;;;;5085816;28;20142;-63
2022/05/01 09:15:31;;;;;;;12.85;8.38;;;13.00;99.90;;;;;;5078593;28;20044;-61
2022/05/01 09:18:05;;;;;;;12.20;8.50;;;13.30;99.90;;;;;;5085021;28;20040;-62
2022/05/01 09:20:32;;;;;;;12.45;9.05;;;13.50;99.40;;;;;;5083727;28;20195;-61
2022/05/01 09:22:58;;;;;;;11.45;8.32;;;13.60;99.40;;;;;;5082758;28;20044;-62
2022/05/01 09:25:27;;;;;;;13.13;8.30;;;14.00;99.40;;;;;;5058087;28;20033;-62
2022/05/01 09:27:57;;;;;;;13.50;8.38;;;14.20;98.00;;;;;;5080729;28;20051;-62
2022/05/01 09:30:31;;;;;;;10.57;7.97;;;14.30;96.50;;;;;;5087949;28;20436;-61
2022/05/01 09:32:58;;;;;;;11.40;7.28;;;14.20;95.70;;;;;;5085009;28;20051;-62
2022/05/01 09:35:36;;;;;;;10.45;6.65;;;14.30;96.00;;;;;;5082212;28;20093;-63
2022/05/01 09:38:22;;;;;;;10.65;7.38;;;14.30;96.00;;;;;;5087348;28;20811;-62
2022/05/01 09:40:54;;;;;;;9.77;7.57;;;14.30;95.60;;;;;;5087097;28;20044;-61
2022/05/01 09:43:36;;;;;;;11.43;8.43;;;14.50;96.10;;;;;;5086622;28;20453;-61
2022/05/01 09:46:22;;;;;;;10.00;7.07;;;14.60;95.70;;;;;;5083479;28;20036;-61
2022/05/01 09:49:03;;;;;;;10.63;7.20;;;14.50;94.30;;;;;;5083861;28;20051;-62
2022/05/01 09:51:38;;;;;;;10.70;7.60;;;14.60;94.00;;;;;;5085761;28;20352;-61
2022/05/01 09:54:05;;;;;;;10.50;6.72;;;14.50;92.70;;;;;;5086347;28;20040;-61
2022/05/01 09:56:51;;;;;;;9.55;6.80;;;14.40;93.10;;;;;;5088813;28;20060;-61
2022/05/01 09:59:22;;;;;;;9.70;7.20;;;14.40;92.20;;;;;;5086452;28;20418;-62
2022/05/01 10:02:02;;;;;;;9.90;6.72;;;14.40;92.60;;;;;;5086177;28;20048;-61
2022/05/01 10:04:28;;;;;;;10.25;6.97;;;14.50;92.40;;;;;;5084031;28;20083;-63
2022/05/01 10:06:55;;;;;;;11.93;6.80;;;14.60;92.20;;;;;;5085882;28;20173;-61
2022/05/01 10:09:27;;;;;;;8.43;6.28;;;14.60;91.90;;;;;;5085213;28;20094;-62
2022/05/01 10:11:58;;;;;;;9.07;6.32;;;14.70;91.40;;;;;;5089179;28;20044;-61
2022/05/01 10:14:26;;;;;;;9.07;5.97;;;14.80;91.10;;;;;;5091508;28;20440;-62
2022/05/01 10:16:54;;;;;;;9.73;6.05;;;15.00;91.00;;;;;;5079057;28;20063;-61
2022/05/01 10:19:23;;;;;;;9.45;6.53;;;15.10;91.10;;;;;;5088806;28;20060;-61
2022/05/01 10:21:51;;;;;;;8.35;5.53;;;15.30;91.00;;;;;;5089093;28;20029;-61
2022/05/01 10:24:18;;;;;;;9.10;6.55;;;15.30;90.20;;;;;;5090797;28;20048;-61
2022/05/01 10:27:01;;;;;;;8.52;5.53;;;15.40;89.80;;;;;;5089681;28;20032;-62
2022/05/01 10:29:37;;;;;;;7.00;5.22;;;15.50;87.50;;;;;;5089634;28;20516;-62
2022/05/01 10:32:24;;;;;;;6.88;4.90;;;15.70;85.10;;;;;;5070726;28;20044;-63
2022/05/01 10:35:08;;;;;;;8.63;5.82;;;15.90;83.20;;;;;;5070789;28;20138;-61
2022/05/01 10:37:46;;;;;;;7.63;5.13;;;16.10;77.10;;;;;;5081972;28;20199;-62
2022/05/01 10:40:13;;;;;;;7.43;4.75;;;16.20;78.10;;;;;;5071082;28;20048;-60
2022/05/01 10:42:46;;;;;;;6.00;4.20;;;16.40;76.00;;;;;;5070843;28;20468;-61
2022/05/01 10:45:25;;;;;;;6.70;4.35;;;16.60;69.60;;;;;;5071861;28;20422;-61
2022/05/01 10:47:52;;;;;;;5.82;4.05;;;16.70;70.90;;;;;;5090586;28;20078;-61
2022/05/01 10:50:23;;;;;;;6.57;4.40;;;16.70;69.90;;;;;;5088888;28;20123;-63
2022/05/01 10:53:09;;;;;;;7.03;4.38;;;16.80;68.80;;;;;;5088676;28;20032;-61
2022/05/01 10:55:51;;;;;;;6.50;4.28;;;16.90;68.10;;;;;;5089103;28;20083;-61
2022/05/01 10:58:22;;;;;;;7.43;4.50;;;17.00;66.60;;;;;;5070679;28;20084;-60
2022/05/01 11:00:52;;;;;;;6.82;4.00;;;16.90;65.90;;;;;;5079292;28;20032;-60
2022/05/01 11:03:21;;;;;;;8.52;4.60;;;16.80;66.70;;;;;;5089143;28;20040;-62
2022/05/01 11:05:50;;;;;;;6.35;3.97;;;16.80;65.80;;;;;;5086197;28;20151;-62
2022/05/01 11:08:19;;;;;;;7.35;4.22;;;16.70;66.70;;;;;;5087476;28;20055;-61
2022/05/01 11:10:47;;;;;;;6.10;3.80;;;16.70;66.60;;;;;;5090857;28;20043;-61
2022/05/01 11:13:20;;;;;;;7.13;4.32;;;16.40;65.40;;;;;;5089390;28;20048;-61
2022/05/01 11:15:47;;;;;;;7.00;4.35;;;16.30;65.90;;;;;;5090598;28;20051;-62
2022/05/01 11:18:13;;;;;;;6.03;4.10;;;16.30;66.20;;;;;;5090052;28;20147;-62
2022/05/01 11:20:39;;;;;;;6.40;3.78;;;16.00;66.20;;;;;;5087702;28;20078;-62
2022/05/01 11:23:29;;;;;;;7.63;3.95;;;16.00;66.60;;;;;;5089210;28;20040;-62
2022/05/01 11:26:08;;;;;;;6.68;4.90;;;16.00;67.20;;;;;;5088660;28;20090;-61
2022/05/01 11:28:50;;;;;;;7.47;4.68;;;16.00;66.90;;;;;;5090637;28;20541;-61
2022/05/01 11:31:37;;;;;;;7.45;4.47;;;15.90;67.00;;;;;;5089824;28;20040;-61
2022/05/01 11:34:24;;;;;;;7.80;4.40;;;15.90;65.50;;;;;;5088529;28;20085;-61
2022/05/01 11:37:09;;;;;;;7.70;4.18;;;15.80;65.50;;;;;;5088143;28;20059;-61
2022/05/01 11:39:43;;;;;;;6.97;4.28;;;15.70;64.70;;;;;;5085576;28;20071;-62
2022/05/01 11:42:24;;;;;;;5.97;4.22;;;15.70;65.80;;;;;;5088931;28;20048;-61
2022/05/01 11:44:50;;;;;;;6.65;3.50;;;15.70;65.10;;;;;;5090353;28;20134;-61
2022/05/01 11:47:19;;;;;;;6.15;3.83;;;15.80;64.90;;;;;;5088251;28;20044;-60
2022/05/01 11:49:47;;;;;;;5.93;3.47;;;15.70;64.00;;;;;;5088719;28;20058;-61
2022/05/01 11:52:13;;;;;;;5.15;3.08;;;15.70;63.90;;;;;;5088830;28;20062;-61
2022/05/01 11:54:51;;;;;;;6.05;3.65;;;15.70;63.30;;;;;;5086510;28;20444;-62
2022/05/01 12:02:57;;;;;;;7.60;3.95;;;15.50;62.20;;;;;;5074976;28;20495;-61
2022/05/01 12:05:23;;;;;;;6.55;3.90;;;15.50;63.30;;;;;;5085695;28;20058;-62
2022/05/01 12:07:56;;;;;;;6.93;3.67;;;15.60;63.50;;;;;;5088229;28;20044;-61
2022/05/01 12:10:28;;;;;;;7.03;3.60;;;15.70;63.80;;;;;;5087650;28;20059;-61
2022/05/01 12:12:54;;;;;;;5.75;3.70;;;15.70;62.90;;;;;;5090466;28;20166;-61
2022/05/01 12:15:19;;;;;;;7.28;3.90;;;15.60;62.40;;;;;;5087123;28;20115;-61
2022/05/01 12:17:45;;;;;;;6.18;3.78;;;15.70;63.50;;;;;;5087539;28;20101;-61
2022/05/01 12:20:11;;;;;;;8.93;4.00;;;15.80;65.20;;;;;;5087716;28;20036;-61
2022/05/01 12:22:38;;;;;;;7.47;4.20;;;16.00;65.50;;;;;;5087322;28;20406;-61
2022/05/01 12:25:07;;;;;;;5.80;3.67;;;16.30;65.80;;;;;;5088001;28;20477;-61
2022/05/01 12:27:34;;;;;;;7.90;4.25;;;16.80;65.30;;;;;;5089309;28;20445;-60
2022/05/01 12:30:05;;;;;;;7.47;4.32;;;17.00;64.30;;;;;;5088398;28;20075;-61
2022/05/01 12:32:32;;;;;;;6.55;3.78;;;17.40;64.30;;;;;;5089261;28;20123;-61
2022/05/01 12:35:00;;;;;;;5.90;4.10;;;17.80;63.50;;;;;;5087411;28;20044;-61
2022/05/01 12:37:34;;;;;;;7.38;3.50;;;18.10;62.40;;;;;;5086439;28;20515;-61
2022/05/01 12:39:59;;;;;;;6.72;3.83;;;18.20;61.00;;;;;;5088434;28;20791;-61
2022/05/01 12:45:10;;;;;;;;;;;18.30;59.70;;;;;;5087479;28;20412;-61
2022/05/01 12:47:46;;;;;;;7.20;3.97;;;18.00;59.40;;;;;;5089183;28;19920;-61
2022/05/01 12:50:18;;;;;;;6.32;4.18;;;17.90;58.40;;;;;;5082482;28;20032;-64
2022/05/01 12:52:45;;;;;;;5.95;4.00;;;17.60;56.40;;;;;;5088089;28;20036;-61
2022/05/01 12:55:19;;;;;;;7.00;3.50;;;17.50;57.30;;;;;;5085332;28;20036;-61
2022/05/01 12:58:01;;;;;;;6.13;3.72;;;17.40;57.40;;;;;;5086204;28;20512;-62
2022/05/01 13:00:42;;;;;;;5.13;3.05;;;17.30;58.10;;;;;;5085636;28;20471;-61
2022/05/01 13:03:24;;;;;;;5.35;3.40;;;17.20;57.30;;;;;;5087096;28;20110;-61
2022/05/01 13:05:59;;;;;;;5.28;3.22;;;17.20;57.70;;;;;;5083123;28;20078;-64
2022/05/01 13:08:25;;;;;;;5.88;3.63;;;17.20;57.70;;;;;;5084804;28;20044;-61
2022/05/01 13:11:12;;;;;;;6.72;4.13;;;17.10;57.70;;;;;;5086685;28;20090;-62
2022/05/01 13:13:49;;;;;;;6.25;3.80;;;16.90;56.70;;;;;;5086920;28;20126;-62
2022/05/01 13:16:17;;;;;;;6.15;3.67;;;16.70;57.20;;;;;;5086126;28;20048;-64